Estación Meteorológica Peña el Pijo (Robertgarden) [ 02/03/23 03:48:11 CET ]

Fecha Hora Presion(HPa) Temp (°C) Humedad % Rocio (°C) Viento ( m/s) Direccion Lluvia 1Hora(mm) Lluvia 24H(mm) LLuvia Total(mm)
2012-Aug-28 01:01:14 1015.700 18.6 53 8.8         178.19
2012-Aug-28 02:01:14 1015.500 17.3 54 7.8         178.19
2012-Aug-28 03:03:26 1015.200 15.8 59 7.8         178.19
2012-Aug-28 04:01:49 1014.700 14.4 64 7.7         178.19
2012-Aug-28 05:05:12 1014.800 13.8 64 7.1         178.19
2012-Aug-28 06:01:12 1014.800 12.9 66 6.7         178.19
2012-Aug-28 07:01:12 1015.100 11.8 69 6.3         178.19
2012-Aug-28 08:01:15 1015.500 11.1 72 6.3         178.19
2012-Aug-28 09:01:14 1015.700 15.6 65 9.1         178.19
2012-Aug-28 10:01:13 1015.600 23.3 47 11.3         178.19
2012-Aug-28 11:01:12 1015.500 28.3 31 9.5         178.19
2012-Aug-28 12:01:12 1015.200 32.1 25 9.4         178.19
2012-Aug-28 13:01:16 1015.100 33.9 21 8.4         178.19
2012-Aug-28 14:01:12 1014.700 36.4 17 6.9         178.19
2012-Aug-28 15:01:13 1014.200 38.4 14 5.5         178.19
2012-Aug-28 16:01:17 1013.800 37.3 15 5.6         178.19
2012-Aug-28 17:01:13 1013.700 37.9 14 5.1 1.2 SSW     178.19
2012-Aug-28 18:01:13 1013.500 36.6 13 3.1         178.19
2012-Aug-28 19:01:19 1013.700 33.4 28 12.3         178.19
2012-Aug-28 20:01:11 1013.800 29.5 34 11.9         178.19
2012-Aug-28 21:01:12 1014.300 27.3 37 11.3         178.19
2012-Aug-28 22:01:14 1015.400 25.8 39 10.8         178.19
2012-Aug-28 23:01:17 1015.600 22.3 48 10.7         178.19

Temperatura Máxima:38°    Temperatura Mínima:11°
Presión Máxima:1015.700 Hpa    Presión Mínima:1013.500 Hpa


Volver